Time;durP1;ratioP1;P1;durP2;ratioP2;P2;SDS_P1;SDS_P2;PMS_P1;PMS_P2;Temp;Humidity;BMP_temperature;BMP_pressure;BME280_temperature;BME280_humidity;BME280_pressure;Samples;Min_cycle;Max_cycle;Signal;HPM_P1;HPM_P2
2022/04/04 00:01:23;;;;;;;9.00;6.97;;;;;;;-1.92;76.32;96554.33;1643229;85;21021;-83
2022/04/04 00:03:48;;;;;;;7.80;6.17;;;;;;;-1.91;76.62;96554.69;1653815;86;20959;-83
2022/04/04 00:06:14;;;;;;;8.60;7.15;;;;;;;-1.89;77.04;96549.03;1638493;87;21013;-84
2022/04/04 00:08:40;;;;;;;10.38;7.17;;;;;;;-1.94;76.28;96544.70;1628978;87;21371;-83
2022/04/04 00:11:07;;;;;;;9.53;7.22;;;;;;;-1.94;75.62;96551.07;1626722;87;21058;-84
2022/04/04 00:13:33;;;;;;;9.78;6.45;;;;;;;-1.95;75.48;96547.36;1626589;87;20998;-83
2022/04/04 00:15:59;;;;;;;8.13;6.03;;;;;;;-1.92;76.65;96551.78;1638662;87;21045;-84
2022/04/04 00:18:25;;;;;;;7.12;5.95;;;;;;;-1.94;74.92;96543.43;1629570;88;21118;-83
2022/04/04 00:20:50;;;;;;;6.17;5.30;;;;;;;-1.93;75.20;96538.70;1630856;87;21042;-83
2022/04/04 00:23:18;;;;;;;7.42;6.50;;;;;;;-1.93;74.96;96542.97;1624059;88;21611;-83
2022/04/04 00:25:45;;;;;;;8.48;6.30;;;;;;;-1.95;74.67;96536.71;1625383;87;21017;-84
2022/04/04 00:28:12;;;;;;;8.35;6.72;;;;;;;-1.94;74.40;96544.70;1644898;87;21073;-83
2022/04/04 00:30:37;;;;;;;9.73;6.83;;;;;;;-1.95;74.75;96544.81;1650330;87;21149;-83
2022/04/04 00:33:04;;;;;;;6.37;5.78;;;;;;;-1.96;73.95;96545.23;1654570;87;21447;-84
2022/04/04 00:35:30;;;;;;;8.68;6.12;;;;;;;-1.95;74.53;96549.91;1654501;87;21081;-83
2022/04/04 00:37:58;;;;;;;6.83;6.17;;;;;;;-1.96;74.15;96544.42;1638337;87;21322;-83
2022/04/04 00:40:24;;;;;;;7.22;6.00;;;;;;;-1.95;73.98;96542.27;1603121;88;21030;-83
2022/04/04 00:42:49;;;;;;;6.45;5.67;;;;;;;-1.96;73.32;96536.78;1626532;88;21309;-83
2022/04/04 00:45:16;;;;;;;7.03;5.60;;;;;;;-1.96;73.53;96541.41;1626438;88;21173;-83
2022/04/04 00:47:41;;;;;;;6.12;5.53;;;;;;;-1.97;72.98;96533.42;1638995;87;21038;-83
2022/04/04 00:50:08;;;;;;;9.73;5.45;;;;;;;-2.00;73.51;96529.81;1653145;87;21090;-83
2022/04/04 00:52:34;;;;;;;6.03;5.50;;;;;;;-2.02;72.63;96530.83;1640045;87;21132;-83
2022/04/04 00:55:01;;;;;;;7.10;5.20;;;;;;;-2.03;73.03;96532.56;1626561;88;21069;-83
2022/04/04 00:57:27;;;;;;;6.60;5.33;;;;;;;-2.02;72.83;96526.55;1626487;88;21499;-84
2022/04/04 00:59:53;;;;;;;5.33;4.92;;;;;;;-2.02;72.96;96529.09;1626660;87;21022;-83
2022/04/04 01:02:19;;;;;;;6.03;5.42;;;;;;;-2.02;73.22;96527.02;1625908;87;22124;-83
2022/04/04 01:04:45;;;;;;;6.80;5.60;;;;;;;-2.01;73.84;96530.73;1650428;87;20998;-83
2022/04/04 01:07:11;;;;;;;6.08;5.50;;;;;;;-2.02;73.14;96527.83;1629369;88;21061;-83
2022/04/04 01:09:37;;;;;;;6.65;6.05;;;;;;;-2.00;74.27;96521.36;1650412;87;21029;-83
2022/04/04 01:12:10;;;;;;;5.87;5.28;;;;;;;-2.02;74.42;96520.19;1629591;88;21030;-83
2022/04/04 01:14:45;;;;;;;9.30;6.45;;;;;;;-2.04;74.00;96521.20;1654373;85;21066;-83
2022/04/04 01:17:10;;;;;;;6.65;5.50;;;;;;;-2.05;74.10;96519.58;1654694;87;21018;-84
2022/04/04 01:19:36;;;;;;;5.95;5.37;;;;;;;-2.05;74.14;96515.30;1654193;87;21365;-83
2022/04/04 01:22:07;;;;;;;5.22;4.58;;;;;;;-2.04;74.29;96516.93;1629167;88;21062;-83
2022/04/04 01:24:33;;;;;;;6.17;4.65;;;;;;;-2.03;73.91;96519.83;1654308;87;21068;-83
2022/04/04 01:26:58;;;;;;;6.03;5.40;;;;;;;-2.06;73.46;96519.23;1605760;88;21330;-83
2022/04/04 01:29:24;;;;;;;5.35;4.85;;;;;;;-2.09;73.49;96521.52;1578357;89;20992;-83
2022/04/04 01:31:51;;;;;;;6.60;5.20;;;;;;;-2.09;72.98;96519.44;1656994;85;21048;-83
2022/04/04 01:34:20;;;;;;;8.18;5.00;;;;;;;-2.08;73.13;96511.69;1663106;86;21366;-83
2022/04/04 01:36:46;;;;;;;6.70;4.97;;;;;;;-2.06;72.04;96507.77;1670761;86;21019;-83
2022/04/04 01:39:12;;;;;;;6.45;4.92;;;;;;;-2.07;73.38;96502.32;1634442;86;21038;-83
2022/04/04 01:41:37;;;;;;;5.60;5.10;;;;;;;-2.09;72.70;96499.88;1626551;88;20987;-84
2022/04/04 01:44:03;;;;;;;5.53;4.55;;;;;;;-2.10;72.74;96499.52;1626510;88;21444;-84
2022/04/04 01:46:29;;;;;;;5.65;5.15;;;;;;;-2.10;71.23;96494.43;1631574;87;20999;-83
2022/04/04 01:48:58;;;;;;;6.92;5.60;;;;;;;-2.10;73.40;96491.89;1654471;87;21023;-83
2022/04/04 01:51:24;;;;;;;7.47;5.75;;;;;;;-2.15;72.56;96492.63;1629553;88;20989;-83
2022/04/04 01:53:50;;;;;;;6.75;5.40;;;;;;;-2.18;72.74;96494.11;1631467;87;21039;-83
2022/04/04 01:56:17;;;;;;;6.15;5.05;;;;;;;-2.17;73.61;96489.38;1617287;89;21055;-82
2022/04/04 01:58:43;;;;;;;5.58;4.92;;;;;;;-2.20;73.61;96495.94;1617194;89;21087;-83
2022/04/04 02:01:15;;;;;;;6.20;5.60;;;;;;;-2.23;73.88;96486.78;1614949;87;21047;-83
2022/04/04 02:03:42;;;;;;;9.28;6.35;;;;;;;-2.26;73.84;96485.72;1613591;87;20998;-83
2022/04/04 02:06:08;;;;;;;8.85;5.45;;;;;;;-2.28;74.17;96486.27;1617078;89;21374;-83
2022/04/04 02:08:34;;;;;;;5.42;4.95;;;;;;;-2.28;73.68;96480.34;1617244;89;21055;-83
2022/04/04 02:11:02;;;;;;;5.58;5.08;;;;;;;-2.30;72.86;96479.17;1617191;89;21030;-83
2022/04/04 02:13:28;;;;;;;7.45;5.17;;;;;;;-2.30;73.43;96480.45;1617233;87;21086;-83
2022/04/04 02:15:57;;;;;;;6.92;5.45;;;;;;;-2.32;73.28;96478.92;1617226;89;21058;-83
2022/04/04 02:18:23;;;;;;;6.25;5.65;;;;;;;-2.30;72.72;96488.53;1617073;89;21412;-84
2022/04/04 02:20:49;;;;;;;6.87;6.28;;;;;;;-2.29;73.01;96487.63;1616962;89;21050;-83
2022/04/04 02:23:18;;;;;;;6.28;5.50;;;;;;;-2.34;73.23;96480.30;1617205;87;21563;-83
2022/04/04 02:25:45;;;;;;;6.28;5.25;;;;;;;-2.39;71.71;96482.33;1615228;87;20939;-83
2022/04/04 02:28:11;;;;;;;7.62;5.97;;;;;;;-2.37;72.68;96483.50;1611088;89;20989;-83
2022/04/04 02:30:37;;;;;;;5.78;5.17;;;;;;;-2.39;73.12;96480.25;1612042;87;21061;-83
2022/04/04 02:33:03;;;;;;;7.33;5.80;;;;;;;-2.42;73.16;96482.08;1644703;87;21399;-83
2022/04/04 02:35:29;;;;;;;16.00;8.38;;;;;;;-2.43;72.21;96473.28;1644832;87;21345;-83
2022/04/04 02:37:55;;;;;;;19.75;10.38;;;;;;;-2.47;72.48;96472.64;1644940;87;21066;-83
2022/04/04 02:40:21;;;;;;;15.03;9.10;;;;;;;-2.52;72.64;96468.31;1626340;87;20998;-83
2022/04/04 02:42:48;;;;;;;6.25;5.65;;;;;;;-2.58;72.36;96470.45;1634747;87;21031;-83
2022/04/04 02:45:14;;;;;;;6.42;5.75;;;;;;;-2.60;72.71;96471.02;1617120;89;21015;-83
2022/04/04 02:47:41;;;;;;;8.10;6.15;;;;;;;-2.63;72.11;96473.72;1617079;89;21497;-83
2022/04/04 02:50:08;;;;;;;6.90;6.30;;;;;;;-2.61;73.12;96472.70;1617926;87;21014;-83
2022/04/04 02:52:34;;;;;;;8.20;6.97;;;;;;;-2.62;73.54;96467.27;1616979;89;21134;-83
2022/04/04 02:56:28;;;;;;;9.95;7.40;;;;;;;-2.66;73.40;96475.20;1617157;89;21104;-83
2022/04/04 02:57:28;;;;;;;12.63;9.08;;;;;;;-2.73;73.00;96469.70;1614795;89;21049;-83
2022/04/04 02:59:55;;;;;;;13.95;9.45;;;;;;;-2.81;72.47;96468.09;1616966;87;21027;-83
2022/04/04 03:02:23;;;;;;;10.58;8.50;;;;;;;-2.84;72.50;96464.02;1614216;87;21047;-83
2022/04/04 03:04:48;;;;;;;10.38;8.30;;;;;;;-2.82;72.78;96464.73;1613615;89;21018;-83
2022/04/04 03:07:14;;;;;;;15.15;10.85;;;;;;;-2.83;72.66;96463.56;1614814;87;21054;-83
2022/04/04 03:09:40;;;;;;;17.45;11.35;;;;;;;-2.85;72.39;96461.12;1644730;87;20999;-83
2022/04/04 03:12:08;;;;;;;12.33;8.70;;;;;;;-2.84;72.26;96453.03;1644863;87;21149;-83
2022/04/04 03:14:34;;;;;;;19.23;11.25;;;;;;;-2.87;72.60;96448.96;1644513;86;20995;-83
2022/04/04 03:16:59;;;;;;;8.35;6.28;;;;;;;-2.88;72.75;96446.06;1643944;87;21375;-83
2022/04/04 03:19:27;;;;;;;10.43;7.47;;;;;;;-2.88;72.65;96442.25;1644579;86;21016;-83
2022/04/04 03:21:54;;;;;;;8.68;7.78;;;;;;;-2.91;73.00;96436.09;1644846;87;21084;-83
2022/04/04 03:24:20;;;;;;;10.23;8.65;;;;;;;-2.95;71.88;96433.36;1635381;86;21109;-83
2022/04/04 03:26:46;;;;;;;8.73;7.80;;;;;;;-2.97;72.40;96439.46;1627169;87;21385;-83
2022/04/04 03:29:13;;;;;;;7.95;7.12;;;;;;;-3.00;71.51;96444.75;1626394;88;21005;-83
2022/04/04 03:31:39;;;;;;;10.75;9.55;;;;;;;-3.02;71.78;96443.12;1632970;87;21075;-83
2022/04/04 03:34:05;;;;;;;8.85;7.60;;;;;;;-3.05;72.38;96448.41;1615006;87;21023;-83
2022/04/04 03:36:30;;;;;;;7.53;6.80;;;;;;;-3.13;72.54;96448.05;1613834;89;21389;-83
2022/04/04 03:38:56;;;;;;;6.85;6.15;;;;;;;-3.21;72.69;96446.46;1613699;87;21010;-83
2022/04/04 03:41:22;;;;;;;5.95;5.42;;;;;;;-3.25;72.13;96448.03;1614018;89;21078;-83
2022/04/04 03:43:47;;;;;;;10.82;9.75;;;;;;;-3.25;72.95;96453.11;1621885;87;20939;-83
2022/04/04 03:46:14;;;;;;;12.70;11.08;;;;;;;-3.28;72.83;96454.55;1618298;87;21378;-84
2022/04/04 03:48:40;;;;;;;7.53;6.83;;;;;;;-3.32;72.77;96457.28;1617316;89;21122;-83
2022/04/04 03:51:06;;;;;;;6.67;6.08;;;;;;;-3.31;72.84;96458.09;1617139;89;21006;-83
2022/04/04 03:53:32;;;;;;;17.90;12.68;;;;;;;-3.31;73.23;96459.37;1617262;89;21150;-83
2022/04/04 03:55:58;;;;;;;18.25;11.63;;;;;;;-3.36;72.41;96462.66;1617299;87;21089;-83
2022/04/04 03:58:24;;;;;;;30.62;21.40;;;;;;;-3.38;72.31;96459.39;1617415;87;21011;-83
2022/04/04 04:00:50;;;;;;;11.20;10.10;;;;;;;-3.41;72.69;96464.22;1622869;87;21007;-83
2022/04/04 04:03:16;;;;;;;10.43;9.18;;;;;;;-3.42;73.30;96459.20;1644950;87;20951;-83
2022/04/04 04:05:42;;;;;;;6.10;5.60;;;;;;;-3.42;73.32;96459.20;1629224;87;21082;-83
2022/04/04 04:08:08;;;;;;;7.05;6.45;;;;;;;-3.46;72.76;96453.95;1619687;87;20990;-83
2022/04/04 04:10:34;;;;;;;7.00;5.80;;;;;;;-3.49;72.90;96452.88;1617333;89;21030;-83
2022/04/04 04:13:02;;;;;;;6.40;5.80;;;;;;;-3.50;73.12;96457.14;1617045;89;21393;-83
2022/04/04 04:15:29;;;;;;;6.17;5.58;;;;;;;-3.52;73.14;96456.88;1639261;86;21036;-83
2022/04/04 04:17:54;;;;;;;7.35;6.65;;;;;;;-3.50;73.05;96448.25;1606839;88;21357;-83
2022/04/04 04:20:20;;;;;;;6.92;6.33;;;;;;;-3.43;73.34;96448.22;1617504;87;21010;-83
2022/04/04 04:22:56;;;;;;;7.08;6.35;;;;;;;-3.41;72.96;96450.70;1618361;87;21059;-83
2022/04/04 04:25:27;;;;;;;6.92;6.33;;;;;;;-3.35;73.19;96446.50;1644855;87;20998;-83
2022/04/04 04:27:53;;;;;;;6.70;6.10;;;;;;;-3.27;72.77;96439.66;1644886;87;21436;-83
2022/04/04 04:30:19;;;;;;;7.45;6.75;;;;;;;-3.24;72.98;96444.12;1644961;87;21403;-83
2022/04/04 04:32:48;;;;;;;9.70;8.23;;;;;;;-3.20;72.76;96443.46;1630672;87;20995;-83
2022/04/04 04:35:15;;;;;;;54.05;24.45;;;;;;;-3.11;72.61;96439.05;1617186;88;21003;-82
2022/04/04 04:37:41;;;;;;;17.82;11.33;;;;;;;-3.04;72.99;96437.31;1617273;88;20999;-83
2022/04/04 04:40:09;;;;;;;22.22;11.03;;;;;;;-2.98;72.96;96442.46;1617218;89;20975;-83
2022/04/04 04:42:36;;;;;;;10.35;9.33;;;;;;;-2.91;72.16;96437.82;1629451;87;20979;-83
2022/04/04 04:45:03;;;;;;;11.48;9.10;;;;;;;-2.86;72.09;96441.69;1644833;87;21035;-83
2022/04/04 04:47:29;;;;;;;15.55;8.85;;;;;;;-2.84;71.86;96442.86;1644797;87;21003;-83
2022/04/04 04:49:55;;;;;;;7.37;6.78;;;;;;;-2.79;71.98;96449.73;1644785;87;21015;-83
2022/04/04 04:52:21;;;;;;;10.18;7.87;;;;;;;-2.76;72.07;96440.66;1644730;87;21117;-83
2022/04/04 04:54:47;;;;;;;19.37;13.68;;;;;;;-2.73;71.58;96436.64;1652717;87;21164;-83
2022/04/04 04:57:12;;;;;;;18.50;11.50;;;;;;;-2.67;71.33;96442.59;1624430;87;21113;-83
2022/04/04 04:59:39;;;;;;;14.58;11.43;;;;;;;-2.59;70.98;96441.66;1626675;87;21050;-84
2022/04/04 05:02:04;;;;;;;48.87;18.32;;;;;;;-2.52;71.46;96445.88;1646433;87;21420;-83
2022/04/04 05:04:30;;;;;;;20.62;10.13;;;;;;;-2.41;71.74;96456.17;1630325;87;20951;-83
2022/04/04 05:06:56;;;;;;;9.25;8.33;;;;;;;-2.30;71.57;96450.36;1633559;87;21018;-83
2022/04/04 05:09:22;;;;;;;33.88;13.32;;;;;;;-2.23;71.36;96447.78;1634731;87;21107;-83
2022/04/04 05:11:48;;;;;;;15.65;10.35;;;;;;;-2.18;70.70;96450.38;1616384;87;21393;-83
2022/04/04 05:14:17;;;;;;;22.85;11.22;;;;;;;-2.05;71.26;96450.84;1621582;87;21054;-83
2022/04/04 05:16:44;;;;;;;32.65;14.07;;;;;;;-1.95;70.59;96447.58;1622493;87;20967;-84
2022/04/04 05:19:16;;;;;;;20.02;9.35;;;;;;;-1.76;70.65;96447.61;1624644;87;21042;-83
2022/04/04 05:21:41;;;;;;;14.18;9.50;;;;;;;-1.57;70.41;96446.70;1628219;87;21063;-83
2022/04/04 05:24:07;;;;;;;24.43;10.90;;;;;;;-1.43;70.04;96445.29;1622748;87;21090;-83
2022/04/04 05:26:33;;;;;;;93.40;32.40;;;;;;;-1.27;70.21;96443.77;1621822;87;21055;-83
2022/04/04 05:28:59;;;;;;;115.88;36.75;;;;;;;-1.13;69.92;96451.72;1626783;87;21053;-83
2022/04/04 05:31:25;;;;;;;88.67;33.40;;;;;;;-1.04;69.61;96453.14;1629620;87;21054;-83
2022/04/04 05:33:51;;;;;;;29.40;14.78;;;;;;;-0.95;69.26;96451.23;1620579;87;22080;-83
2022/04/04 05:36:16;;;;;;;33.15;14.30;;;;;;;-0.87;68.54;96444.29;1630668;87;21412;-83
2022/04/04 05:38:42;;;;;;;73.97;30.82;;;;;;;-0.81;67.77;96449.44;1636789;87;21412;-84
2022/04/04 05:41:09;;;;;;;121.13;44.80;;;;;;;-0.75;68.78;96456.17;1633328;87;21401;-84
2022/04/04 05:43:35;;;;;;;50.10;21.80;;;;;;;-0.63;69.15;96461.67;1624324;87;20992;-84
2022/04/04 05:46:02;;;;;;;110.42;42.43;;;;;;;-0.50;69.42;96460.77;1634825;87;21055;-84
2022/04/04 05:48:30;;;;;;;75.80;27.45;;;;;;;-0.45;69.10;96459.53;1629602;87;21322;-84
2022/04/04 05:50:55;;;;;;;43.92;18.73;;;;;;;-0.37;69.00;96456.40;1623008;87;21003;-84
2022/04/04 05:53:21;;;;;;;31.52;13.45;;;;;;;-0.31;68.35;96461.89;1621713;87;21527;-84
2022/04/04 05:55:46;;;;;;;34.55;15.23;;;;;;;-0.25;68.24;96455.97;1613895;87;21061;-83
2022/04/04 05:58:12;;;;;;;35.65;16.00;;;;;;;-0.22;68.10;96457.02;1613963;87;20979;-84
2022/04/04 06:00:38;;;;;;;8.95;7.37;;;;;;;-0.23;67.48;96449.00;1611304;87;20988;-84
2022/04/04 06:03:04;;;;;;;12.10;7.33;;;;;;;-0.29;66.69;96449.47;1612172;87;21004;-84
2022/04/04 06:05:30;;;;;;;11.38;8.40;;;;;;;-0.30;66.61;96448.66;1613810;87;21017;-83
2022/04/04 06:07:56;;;;;;;71.70;27.42;;;;;;;-0.23;66.69;96446.45;1621440;87;21014;-84
2022/04/04 06:10:22;;;;;;;13.20;8.48;;;;;;;-0.13;67.20;96445.66;1614494;87;20975;-84
2022/04/04 06:12:47;;;;;;;19.95;10.45;;;;;;;-0.02;67.64;96447.40;1604737;88;20976;-83
2022/04/04 06:15:15;;;;;;;24.65;14.63;;;;;;;0.08;67.27;96451.36;1618353;87;21377;-84
2022/04/04 06:17:41;;;;;;;33.73;16.27;;;;;;;0.15;66.73;96445.66;1618124;87;21022;-84
2022/04/04 06:20:08;;;;;;;21.65;12.10;;;;;;;0.34;66.28;96451.50;1620252;87;21019;-84
2022/04/04 06:22:38;;;;;;;15.08;9.75;;;;;;;0.43;65.60;96453.33;1618019;87;20994;-84
2022/04/04 06:25:07;;;;;;;11.03;8.65;;;;;;;0.56;66.03;96448.09;1617838;87;21104;-84
2022/04/04 06:27:34;;;;;;;21.42;11.85;;;;;;;0.75;65.70;96439.80;1622038;87;22010;-84
2022/04/04 06:29:59;;;;;;;25.85;15.15;;;;;;;1.04;64.96;96452.41;1622241;86;21058;-84
2022/04/04 06:32:26;;;;;;;13.60;9.08;;;;;;;1.40;65.26;96447.84;1624057;86;21021;-84
2022/04/04 06:34:52;;;;;;;15.75;9.83;;;;;;;1.67;64.50;96453.31;1620006;87;21046;-84
2022/04/04 06:37:18;;;;;;;16.77;11.60;;;;;;;1.67;64.63;96453.78;1617730;87;21012;-83
2022/04/04 06:39:44;;;;;;;33.33;16.77;;;;;;;1.54;64.18;96451.86;1624582;87;21003;-84
2022/04/04 06:42:10;;;;;;;67.25;35.85;;;;;;;1.45;64.04;96452.94;1630900;87;21109;-84
2022/04/04 06:44:36;;;;;;;67.22;34.48;;;;;;;1.65;64.43;96447.50;1625337;87;21409;-84
2022/04/04 06:47:03;;;;;;;21.02;11.78;;;;;;;1.84;64.49;96448.55;1644795;87;21067;-84
2022/04/04 06:49:29;;;;;;;10.78;7.12;;;;;;;1.99;63.21;96441.70;1629150;86;20991;-84
2022/04/04 06:51:56;;;;;;;9.88;7.87;;;;;;;2.03;63.44;96446.09;1623853;87;21018;-84
2022/04/04 06:54:22;;;;;;;9.40;7.62;;;;;;;2.04;63.41;96447.72;1627107;87;21030;-84
2022/04/04 06:56:53;;;;;;;8.95;7.25;;;;;;;1.97;63.69;96438.92;1644929;87;21038;-84
2022/04/04 06:59:18;;;;;;;14.93;9.90;;;;;;;2.04;62.89;96443.88;1620342;87;20968;-84
2022/04/04 07:01:45;;;;;;;21.37;14.73;;;;;;;2.11;62.54;96443.69;1621077;87;21034;-84
2022/04/04 07:04:11;;;;;;;11.30;7.85;;;;;;;2.18;62.62;96439.69;1617468;87;21094;-85
2022/04/04 07:06:37;;;;;;;7.80;6.75;;;;;;;2.22;61.44;96441.05;1635391;87;21080;-84
2022/04/04 07:09:03;;;;;;;11.97;8.28;;;;;;;2.14;62.07;96431.11;1621706;87;21086;-84
2022/04/04 07:11:29;;;;;;;11.80;9.40;;;;;;;2.23;62.33;96429.86;1618543;87;21073;-84
2022/04/04 07:13:56;;;;;;;8.78;7.60;;;;;;;2.32;62.73;96430.84;1616991;89;21022;-84
2022/04/04 07:16:22;;;;;;;16.23;10.78;;;;;;;2.45;62.44;96434.00;1617594;87;21150;-84
2022/04/04 07:18:49;;;;;;;19.32;13.15;;;;;;;2.53;62.35;96430.77;1618365;87;21054;-83
2022/04/04 07:21:15;;;;;;;12.53;9.50;;;;;;;2.68;63.35;96433.31;1617532;87;21390;-84
2022/04/04 07:23:41;;;;;;;12.80;9.43;;;;;;;2.85;62.38;96433.14;1619177;87;21082;-84
2022/04/04 07:26:07;;;;;;;13.22;9.73;;;;;;;2.94;62.50;96434.45;1618253;87;21055;-84
2022/04/04 07:28:33;;;;;;;12.15;9.20;;;;;;;3.08;62.70;96433.70;1621408;87;21062;-84
2022/04/04 07:31:01;;;;;;;14.53;10.50;;;;;;;3.17;61.37;96429.87;1624077;86;21871;-84
2022/04/04 07:33:27;;;;;;;15.65;10.05;;;;;;;3.21;61.31;96438.11;1631328;87;21055;-87
2022/04/04 07:35:53;;;;;;;9.43;8.10;;;;;;;3.32;62.06;96435.41;1637126;86;21009;-86
2022/04/04 07:38:19;;;;;;;15.65;9.78;;;;;;;3.48;61.13;96436.97;1643132;87;20990;-86
2022/04/04 07:40:45;;;;;;;12.98;9.15;;;;;;;3.52;61.56;96429.31;1627899;87;20982;-85
2022/04/04 07:43:10;;;;;;;17.48;11.53;;;;;;;3.69;61.17;96438.08;1621253;87;21005;-84
2022/04/04 07:45:36;;;;;;;12.98;10.20;;;;;;;3.88;61.74;96429.52;1630925;87;21485;-85
2022/04/04 07:48:03;;;;;;;11.33;8.75;;;;;;;4.04;60.28;96432.33;1629810;87;21018;-84
2022/04/04 07:50:30;;;;;;;11.95;8.33;;;;;;;4.14;60.74;96434.87;1618054;87;21412;-86
2022/04/04 07:52:56;;;;;;;8.83;7.72;;;;;;;4.28;60.71;96433.61;1624805;87;21019;-85
2022/04/04 07:55:22;;;;;;;10.55;8.38;;;;;;;4.25;58.34;96423.61;1624848;87;21439;-85
2022/04/04 07:57:48;;;;;;;14.20;10.18;;;;;;;4.20;58.97;96432.54;1635313;87;21058;-85
2022/04/04 08:00:14;;;;;;;11.45;9.68;;;;;;;4.18;59.85;96429.78;1629316;87;21010;-85
2022/04/04 08:02:40;;;;;;;9.40;8.40;;;;;;;4.25;59.78;96436.00;1616313;88;21300;-85
2022/04/04 08:05:08;;;;;;;8.85;7.65;;;;;;;4.39;59.47;96429.55;1637421;87;21401;-85
2022/04/04 08:07:34;;;;;;;8.93;8.03;;;;;;;4.45;59.36;96431.10;1626528;87;21053;-85
2022/04/04 08:09:59;;;;;;;9.58;7.72;;;;;;;4.63;60.30;96423.42;1626551;87;20986;-85
2022/04/04 08:12:27;;;;;;;13.70;9.45;;;;;;;4.74;59.35;96416.80;1633503;87;20986;-85
2022/04/04 08:14:53;;;;;;;9.53;8.50;;;;;;;4.69;59.49;96417.69;1636748;87;21001;-85
2022/04/04 08:17:19;;;;;;;11.28;9.58;;;;;;;4.87;59.93;96419.48;1638582;87;20998;-85
2022/04/04 08:19:45;;;;;;;10.95;8.73;;;;;;;5.00;58.81;96417.38;1626736;87;20984;-85
2022/04/04 08:22:10;;;;;;;10.20;8.45;;;;;;;5.27;58.92;96419.89;1639160;87;20979;-85
2022/04/04 08:24:36;;;;;;;27.02;18.00;;;;;;;5.42;57.13;96423.56;1626602;87;21054;-83
2022/04/04 08:27:02;;;;;;;87.42;49.05;;;;;;;5.52;58.19;96421.37;1623515;87;21348;-85
2022/04/04 08:29:28;;;;;;;66.87;40.98;;;;;;;5.43;58.44;96417.94;1632902;87;20986;-86
2022/04/04 08:31:54;;;;;;;90.57;49.73;;;;;;;5.39;58.36;96415.33;1650253;86;20980;-85
2022/04/04 08:34:19;;;;;;;54.15;29.92;;;;;;;5.36;58.27;96416.41;1657268;86;21022;-84
2022/04/04 08:36:46;;;;;;;17.15;11.20;;;;;;;5.28;59.28;96412.49;1653118;87;21075;-83
2022/04/04 08:39:12;;;;;;;10.38;8.58;;;;;;;5.24;59.25;96408.60;1630982;87;21383;-83
2022/04/04 08:41:38;;;;;;;12.13;9.15;;;;;;;5.29;59.66;96412.02;1623377;87;21046;-83
2022/04/04 08:44:05;;;;;;;13.65;9.33;;;;;;;5.39;59.25;96415.33;1622793;87;21126;-85
2022/04/04 08:46:33;;;;;;;13.83;9.60;;;;;;;5.51;58.38;96407.67;1623053;88;21108;-84
2022/04/04 08:48:58;;;;;;;10.38;8.55;;;;;;;5.56;58.67;96408.53;1623155;87;21401;-83
2022/04/04 08:51:28;;;;;;;9.73;8.65;;;;;;;5.28;57.81;96403.47;1623041;88;21061;-83
2022/04/04 08:53:54;;;;;;;8.53;7.53;;;;;;;5.20;58.11;96402.10;1622793;88;21018;-83
2022/04/04 08:56:27;;;;;;;9.08;8.18;;;;;;;5.20;56.96;96396.14;1618775;87;20990;-84
2022/04/04 08:58:51;;;;;;;8.68;7.87;;;;;;;5.11;58.39;96391.41;1616856;87;21074;-84
2022/04/04 09:01:20;;;;;;;8.58;7.55;;;;;;;5.23;58.88;96397.16;1630444;87;21042;-84
2022/04/04 09:03:52;;;;;;;8.80;8.00;;;;;;;5.21;58.43;96388.30;1647555;87;21007;-83
2022/04/04 09:06:18;;;;;;;9.18;7.55;;;;;;;5.24;57.79;96385.89;1648952;86;21343;-83
2022/04/04 09:08:48;;;;;;;9.08;7.83;;;;;;;5.19;58.08;96386.31;1630340;87;20984;-84
2022/04/04 09:11:14;;;;;;;7.70;6.80;;;;;;;5.24;58.67;96386.70;1603700;87;21129;-84
2022/04/04 09:13:40;;;;;;;7.90;7.20;;;;;;;5.32;58.89;96379.02;1641867;87;21480;-84
2022/04/04 09:16:08;;;;;;;9.20;7.80;;;;;;;5.41;58.94;96386.36;1633782;87;21140;-84
2022/04/04 09:18:42;;;;;;;8.38;6.95;;;;;;;5.40;57.70;96379.11;1621905;87;21425;-84
2022/04/04 09:21:22;;;;;;;7.78;6.97;;;;;;;5.21;58.58;96377.18;1645570;87;21022;-83
2022/04/04 09:23:54;;;;;;;7.60;6.78;;;;;;;5.25;58.83;96372.86;1612005;88;21047;-83
2022/04/04 09:26:33;;;;;;;6.72;6.10;;;;;;;5.23;58.06;96373.49;1619684;87;21536;-83
2022/04/04 09:29:20;;;;;;;6.97;6.35;;;;;;;5.01;58.16;96367.48;1632650;87;22106;-86
2022/04/04 09:32:05;;;;;;;7.25;6.55;;;;;;;4.91;57.66;96359.85;1638533;87;21007;-87
2022/04/04 09:35:02;;;;;;;7.87;7.08;;;;;;;4.91;58.34;96354.70;1627819;87;21002;-85
2022/04/04 09:37:32;;;;;;;7.58;6.87;;;;;;;4.88;58.76;96356.73;1633424;87;20975;-86
2022/04/04 09:40:14;;;;;;;7.22;6.53;;;;;;;4.87;58.38;96347.39;1602340;88;20993;-88
2022/04/04 09:42:40;;;;;;;7.10;6.50;;;;;;;4.96;58.48;96350.39;1637316;87;21409;-89
2022/04/04 09:45:10;;;;;;;8.18;7.37;;;;;;;5.00;58.66;96357.66;1622243;88;21029;-88
2022/04/04 09:47:56;;;;;;;8.00;6.67;;;;;;;4.97;58.33;96345.57;1630663;87;21038;-87
2022/04/04 09:50:49;;;;;;;8.35;7.40;;;;;;;4.91;58.43;96346.98;1625039;87;21003;-85
2022/04/04 09:53:21;;;;;;;8.20;7.08;;;;;;;4.72;57.81;96329.91;1622635;87;21132;-85
2022/04/04 09:55:56;;;;;;;9.88;7.53;;;;;;;4.82;58.63;96326.77;1625315;87;21062;-85
2022/04/04 09:58:27;;;;;;;6.65;5.62;;;;;;;4.82;58.67;96325.97;1652716;87;21432;-85
2022/04/04 10:00:54;;;;;;;9.17;8.27;;;;;;;4.86;57.72;96322.61;1649101;86;21030;-84
2022/04/04 10:03:20;;;;;;;7.15;6.33;;;;;;;5.03;58.47;96317.45;1638554;86;20992;-85
2022/04/04 10:06:07;;;;;;;8.15;7.35;;;;;;;4.98;57.19;96321.44;1632527;87;21066;-84
2022/04/04 10:08:33;;;;;;;7.55;6.85;;;;;;;5.02;57.14;96313.25;1626938;87;21101;-85
2022/04/04 10:11:00;;;;;;;8.95;7.87;;;;;;;5.13;57.64;96304.02;1630610;87;21022;-85
2022/04/04 10:13:26;;;;;;;8.85;7.47;;;;;;;5.07;58.16;96305.11;1635242;87;21010;-84
2022/04/04 10:15:52;;;;;;;7.50;6.80;;;;;;;5.30;59.14;96298.50;1644670;87;21445;-85
2022/04/04 10:18:18;;;;;;;8.13;7.28;;;;;;;5.75;59.15;96299.25;1626218;88;21078;-86
2022/04/04 10:20:47;;;;;;;9.00;8.10;;;;;;;5.81;58.63;96295.57;1627634;87;20986;-85
2022/04/04 10:23:13;;;;;;;8.53;7.72;;;;;;;5.94;60.19;96294.70;1628055;88;21022;-86
2022/04/04 10:25:38;;;;;;;8.13;6.92;;;;;;;6.17;57.87;96292.84;1626331;87;21407;-86
2022/04/04 10:28:05;;;;;;;6.75;6.15;;;;;;;6.31;58.21;96289.66;1622490;88;21058;-86
2022/04/04 10:30:41;;;;;;;10.53;6.72;;;;;;;6.30;57.18;96279.02;1624416;87;21012;-84
2022/04/04 10:33:22;;;;;;;8.15;6.83;;;;;;;6.15;57.52;96285.25;1627787;88;21050;-85
2022/04/04 10:36:10;;;;;;;7.60;6.95;;;;;;;6.03;57.51;96274.11;1627843;88;21118;-85
2022/04/04 10:38:54;;;;;;;8.63;7.83;;;;;;;5.89;57.85;96277.57;1627576;88;21118;-85
2022/04/04 10:41:23;;;;;;;8.43;7.62;;;;;;;5.82;56.41;96280.42;1627678;88;21436;-84
2022/04/04 10:43:50;;;;;;;8.28;7.17;;;;;;;5.70;57.45;96282.97;1627699;88;21444;-84
2022/04/04 10:46:19;;;;;;;8.68;7.00;;;;;;;5.64;57.71;96279.70;1625078;88;21931;-83
2022/04/04 10:48:56;;;;;;;7.80;7.10;;;;;;;5.49;57.32;96266.56;1627847;87;21454;-84
2022/04/04 10:51:34;;;;;;;7.50;6.80;;;;;;;5.78;57.57;96260.27;1627650;88;21047;-82
2022/04/04 10:54:03;;;;;;;7.30;6.60;;;;;;;5.88;55.54;96259.68;1627615;88;21107;-83
2022/04/04 10:56:41;;;;;;;8.23;7.42;;;;;;;5.76;56.79;96257.84;1619193;87;21042;-83
2022/04/04 10:59:22;;;;;;;8.90;8.10;;;;;;;5.76;57.48;96257.84;1618377;89;21090;-83
2022/04/04 11:01:56;;;;;;;7.83;7.12;;;;;;;6.14;57.34;96254.45;1615373;87;21101;-83
2022/04/04 11:07:38;;;;;;;7.97;7.17;;;;;;;6.04;57.49;96252.52;1613561;89;21106;-84
2022/04/04 11:09:57;;;;;;;8.90;8.00;;;;;;;5.51;57.22;96251.75;1625124;87;21043;-83
2022/04/04 11:12:25;;;;;;;8.65;7.75;;;;;;;5.25;57.87;96245.34;1619160;87;21376;-83
2022/04/04 11:15:04;;;;;;;7.33;6.53;;;;;;;5.11;58.55;96247.98;1617368;87;21034;-83
2022/04/04 11:17:31;;;;;;;6.40;5.80;;;;;;;5.11;58.15;96247.18;1612881;87;21001;-83
2022/04/04 11:20:33;;;;;;;7.95;7.15;;;;;;;5.24;58.13;96239.87;1616536;87;21005;-83
2022/04/04 11:23:08;;;;;;;7.87;7.17;;;;;;;5.08;57.98;96232.84;1591301;89;21060;-83
2022/04/04 11:25:37;;;;;;;5.95;5.15;;;;;;;5.21;57.45;96235.02;1608765;87;21592;-83
2022/04/04 11:28:05;;;;;;;6.40;5.70;;;;;;;5.46;57.18;96223.55;1616937;86;22125;-84
2022/04/04 11:30:31;;;;;;;7.67;6.87;;;;;;;5.53;56.34;96218.93;1615744;86;21332;-82
2022/04/04 11:32:57;;;;;;;6.30;5.70;;;;;;;5.38;57.07;96214.83;1614970;87;20971;-82
2022/04/04 11:35:27;;;;;;;6.67;4.75;;;;;;;5.22;56.70;96206.20;1613866;87;21041;-82
2022/04/04 11:38:06;;;;;;;5.47;4.45;;;;;;;5.60;55.19;96208.80;1621046;87;21002;-82